sensor_id;sensor_type;location;lat;lon;timestamp;P1;durP1;ratioP1;P2;durP2;ratioP2
44987;SDS011;35735;52.226;21.254;2024-02-04T00:02:54;8.40;;;2.75;;
44987;SDS011;35735;52.226;21.254;2024-02-04T00:07:54;4.53;;;2.30;;
44987;SDS011;35735;52.226;21.254;2024-02-04T00:12:55;6.20;;;2.37;;
44987;SDS011;35735;52.226;21.254;2024-02-04T00:17:55;5.60;;;2.20;;
44987;SDS011;35735;52.226;21.254;2024-02-04T00:22:56;5.47;;;2.28;;
44987;SDS011;35735;52.226;21.254;2024-02-04T00:27:57;7.47;;;2.33;;
44987;SDS011;35735;52.226;21.254;2024-02-04T00:32:57;7.97;;;2.40;;
44987;SDS011;35735;52.226;21.254;2024-02-04T00:37:58;8.70;;;2.42;;
44987;SDS011;35735;52.226;21.254;2024-02-04T00:42:58;7.03;;;2.45;;
44987;SDS011;35735;52.226;21.254;2024-02-04T00:47:59;7.97;;;2.35;;
44987;SDS011;35735;52.226;21.254;2024-02-04T00:52:59;8.98;;;2.78;;
44987;SDS011;35735;52.226;21.254;2024-02-04T00:58:00;7.60;;;2.53;;
44987;SDS011;35735;52.226;21.254;2024-02-04T01:03:00;9.30;;;2.83;;
44987;SDS011;35735;52.226;21.254;2024-02-04T01:08:01;9.25;;;2.55;;
44987;SDS011;35735;52.226;21.254;2024-02-04T01:13:02;8.57;;;2.55;;
44987;SDS011;35735;52.226;21.254;2024-02-04T01:18:04;8.10;;;2.42;;
44987;SDS011;35735;52.226;21.254;2024-02-04T01:23:04;6.40;;;2.50;;
44987;SDS011;35735;52.226;21.254;2024-02-04T01:28:05;6.70;;;2.22;;
44987;SDS011;35735;52.226;21.254;2024-02-04T01:33:05;8.00;;;2.60;;
44987;SDS011;35735;52.226;21.254;2024-02-04T01:38:06;6.78;;;2.47;;
44987;SDS011;35735;52.226;21.254;2024-02-04T01:43:06;5.62;;;2.20;;
44987;SDS011;35735;52.226;21.254;2024-02-04T01:48:07;7.82;;;2.47;;
44987;SDS011;35735;52.226;21.254;2024-02-04T01:53:08;10.52;;;2.60;;
44987;SDS011;35735;52.226;21.254;2024-02-04T01:58:09;6.10;;;2.30;;
44987;SDS011;35735;52.226;21.254;2024-02-04T02:03:10;6.43;;;2.10;;
44987;SDS011;35735;52.226;21.254;2024-02-04T02:08:12;10.20;;;2.78;;
44987;SDS011;35735;52.226;21.254;2024-02-04T02:13:17;7.47;;;2.17;;
44987;SDS011;35735;52.226;21.254;2024-02-04T02:23:35;8.35;;;2.87;;
44987;SDS011;35735;52.226;21.254;2024-02-04T02:28:48;7.40;;;2.20;;
44987;SDS011;35735;52.226;21.254;2024-02-04T02:33:49;8.32;;;2.62;;
44987;SDS011;35735;52.226;21.254;2024-02-04T02:38:52;5.95;;;2.33;;
44987;SDS011;35735;52.226;21.254;2024-02-04T02:44:08;6.60;;;2.17;;
44987;SDS011;35735;52.226;21.254;2024-02-04T02:49:10;7.80;;;2.47;;
44987;SDS011;35735;52.226;21.254;2024-02-04T02:54:10;6.90;;;2.58;;
44987;SDS011;35735;52.226;21.254;2024-02-04T02:59:11;6.47;;;2.20;;
44987;SDS011;35735;52.226;21.254;2024-02-04T03:04:11;8.48;;;2.33;;
44987;SDS011;35735;52.226;21.254;2024-02-04T03:09:12;7.47;;;2.40;;
44987;SDS011;35735;52.226;21.254;2024-02-04T03:14:14;8.40;;;2.40;;
44987;SDS011;35735;52.226;21.254;2024-02-04T03:19:16;7.15;;;2.40;;
44987;SDS011;35735;52.226;21.254;2024-02-04T03:24:17;6.80;;;2.10;;
44987;SDS011;35735;52.226;21.254;2024-02-04T03:29:17;7.87;;;2.50;;
44987;SDS011;35735;52.226;21.254;2024-02-04T03:34:18;4.72;;;1.70;;
44987;SDS011;35735;52.226;21.254;2024-02-04T03:39:18;5.78;;;2.30;;
44987;SDS011;35735;52.226;21.254;2024-02-04T03:44:19;5.68;;;2.30;;
44987;SDS011;35735;52.226;21.254;2024-02-04T03:49:20;6.28;;;1.87;;
44987;SDS011;35735;52.226;21.254;2024-02-04T03:54:21;7.85;;;2.30;;
44987;SDS011;35735;52.226;21.254;2024-02-04T03:59:21;6.18;;;1.98;;
44987;SDS011;35735;52.226;21.254;2024-02-04T04:04:22;7.25;;;2.12;;
44987;SDS011;35735;52.226;21.254;2024-02-04T04:09:22;7.75;;;2.10;;
44987;SDS011;35735;52.226;21.254;2024-02-04T04:14:23;6.75;;;1.90;;
44987;SDS011;35735;52.226;21.254;2024-02-04T04:19:23;7.15;;;2.72;;
44987;SDS011;35735;52.226;21.254;2024-02-04T04:24:24;6.85;;;2.30;;
44987;SDS011;35735;52.226;21.254;2024-02-04T04:29:25;5.85;;;2.20;;
44987;SDS011;35735;52.226;21.254;2024-02-04T04:34:25;6.53;;;1.80;;
44987;SDS011;35735;52.226;21.254;2024-02-04T04:39:26;6.00;;;1.83;;
44987;SDS011;35735;52.226;21.254;2024-02-04T04:44:26;4.87;;;1.70;;
44987;SDS011;35735;52.226;21.254;2024-02-04T04:49:27;9.85;;;2.45;;
44987;SDS011;35735;52.226;21.254;2024-02-04T04:54:27;6.32;;;2.05;;
44987;SDS011;35735;52.226;21.254;2024-02-04T04:59:28;7.50;;;2.00;;
44987;SDS011;35735;52.226;21.254;2024-02-04T05:04:29;7.03;;;1.85;;
44987;SDS011;35735;52.226;21.254;2024-02-04T05:09:29;4.55;;;1.70;;
44987;SDS011;35735;52.226;21.254;2024-02-04T05:14:30;6.62;;;1.62;;
44987;SDS011;35735;52.226;21.254;2024-02-04T05:19:30;6.50;;;1.90;;
44987;SDS011;35735;52.226;21.254;2024-02-04T05:24:31;5.68;;;2.10;;
44987;SDS011;35735;52.226;21.254;2024-02-04T05:29:32;7.87;;;2.10;;
44987;SDS011;35735;52.226;21.254;2024-02-04T05:34:32;5.28;;;1.90;;
44987;SDS011;35735;52.226;21.254;2024-02-04T05:39:33;6.47;;;1.58;;
44987;SDS011;35735;52.226;21.254;2024-02-04T05:44:34;5.90;;;2.10;;
44987;SDS011;35735;52.226;21.254;2024-02-04T05:49:34;4.72;;;1.45;;
44987;SDS011;35735;52.226;21.254;2024-02-04T05:54:38;7.00;;;1.80;;
44987;SDS011;35735;52.226;21.254;2024-02-04T05:59:38;6.93;;;1.80;;
44987;SDS011;35735;52.226;21.254;2024-02-04T06:04:39;5.97;;;2.03;;
44987;SDS011;35735;52.226;21.254;2024-02-04T06:09:40;5.68;;;1.95;;
44987;SDS011;35735;52.226;21.254;2024-02-04T06:14:40;4.57;;;1.65;;
44987;SDS011;35735;52.226;21.254;2024-02-04T06:19:41;8.13;;;1.87;;
44987;SDS011;35735;52.226;21.254;2024-02-04T06:24:41;5.05;;;2.00;;
44987;SDS011;35735;52.226;21.254;2024-02-04T06:29:42;7.87;;;2.50;;
44987;SDS011;35735;52.226;21.254;2024-02-04T06:34:42;7.28;;;1.98;;
44987;SDS011;35735;52.226;21.254;2024-02-04T06:39:43;7.45;;;1.80;;
44987;SDS011;35735;52.226;21.254;2024-02-04T06:44:44;9.07;;;2.12;;
44987;SDS011;35735;52.226;21.254;2024-02-04T06:49:45;5.43;;;1.62;;
44987;SDS011;35735;52.226;21.254;2024-02-04T06:54:45;7.80;;;1.95;;
44987;SDS011;35735;52.226;21.254;2024-02-04T06:59:46;10.18;;;2.35;;
44987;SDS011;35735;52.226;21.254;2024-02-04T07:04:46;7.70;;;2.20;;
44987;SDS011;35735;52.226;21.254;2024-02-04T07:09:47;5.12;;;2.08;;
44987;SDS011;35735;52.226;21.254;2024-02-04T07:14:50;7.45;;;2.25;;
44987;SDS011;35735;52.226;21.254;2024-02-04T07:19:51;6.80;;;2.17;;
44987;SDS011;35735;52.226;21.254;2024-02-04T07:24:51;8.75;;;2.20;;
44987;SDS011;35735;52.226;21.254;2024-02-04T07:29:52;5.60;;;2.00;;
44987;SDS011;35735;52.226;21.254;2024-02-04T07:34:52;7.55;;;2.47;;
44987;SDS011;35735;52.226;21.254;2024-02-04T07:39:53;5.37;;;2.00;;
44987;SDS011;35735;52.226;21.254;2024-02-04T07:44:53;8.57;;;2.25;;
44987;SDS011;35735;52.226;21.254;2024-02-04T07:49:54;9.60;;;2.53;;
44987;SDS011;35735;52.226;21.254;2024-02-04T07:54:54;6.95;;;2.40;;
44987;SDS011;35735;52.226;21.254;2024-02-04T07:59:55;8.20;;;2.40;;
44987;SDS011;35735;52.226;21.254;2024-02-04T08:04:56;9.88;;;2.40;;
44987;SDS011;35735;52.226;21.254;2024-02-04T08:09:56;7.10;;;2.50;;
44987;SDS011;35735;52.226;21.254;2024-02-04T08:14:57;9.10;;;2.55;;
44987;SDS011;35735;52.226;21.254;2024-02-04T08:19:57;10.85;;;2.42;;
44987;SDS011;35735;52.226;21.254;2024-02-04T08:24:58;8.05;;;2.62;;
44987;SDS011;35735;52.226;21.254;2024-02-04T08:29:59;9.98;;;2.17;;
44987;SDS011;35735;52.226;21.254;2024-02-04T08:34:59;7.60;;;2.42;;
44987;SDS011;35735;52.226;21.254;2024-02-04T08:40:00;8.02;;;2.37;;
44987;SDS011;35735;52.226;21.254;2024-02-04T08:45:00;6.43;;;2.20;;
44987;SDS011;35735;52.226;21.254;2024-02-04T08:50:01;10.63;;;2.75;;
44987;SDS011;35735;52.226;21.254;2024-02-04T08:55:01;6.95;;;2.33;;
44987;SDS011;35735;52.226;21.254;2024-02-04T09:00:02;8.23;;;2.00;;
44987;SDS011;35735;52.226;21.254;2024-02-04T09:05:03;8.90;;;2.55;;
44987;SDS011;35735;52.226;21.254;2024-02-04T09:10:05;8.75;;;2.28;;
44987;SDS011;35735;52.226;21.254;2024-02-04T09:15:05;8.30;;;2.75;;
44987;SDS011;35735;52.226;21.254;2024-02-04T09:20:06;8.43;;;2.20;;
44987;SDS011;35735;52.226;21.254;2024-02-04T09:25:07;11.02;;;2.60;;
44987;SDS011;35735;52.226;21.254;2024-02-04T09:30:08;6.70;;;2.70;;
44987;SDS011;35735;52.226;21.254;2024-02-04T09:35:09;9.10;;;2.60;;
44987;SDS011;35735;52.226;21.254;2024-02-04T09:40:10;8.23;;;2.30;;
44987;SDS011;35735;52.226;21.254;2024-02-04T09:45:12;6.45;;;2.40;;
44987;SDS011;35735;52.226;21.254;2024-02-04T09:50:14;5.70;;;2.08;;
44987;SDS011;35735;52.226;21.254;2024-02-04T09:55:15;10.73;;;3.05;;
44987;SDS011;35735;52.226;21.254;2024-02-04T10:00:18;11.98;;;2.97;;
44987;SDS011;35735;52.226;21.254;2024-02-04T10:05:19;9.45;;;2.37;;
44987;SDS011;35735;52.226;21.254;2024-02-04T10:10:20;6.65;;;2.42;;
44987;SDS011;35735;52.226;21.254;2024-02-04T10:15:20;7.12;;;2.90;;
44987;SDS011;35735;52.226;21.254;2024-02-04T10:20:21;8.18;;;2.72;;
44987;SDS011;35735;52.226;21.254;2024-02-04T10:25:21;7.85;;;2.42;;
44987;SDS011;35735;52.226;21.254;2024-02-04T10:30:22;10.25;;;3.30;;
44987;SDS011;35735;52.226;21.254;2024-02-04T10:35:23;10.18;;;3.33;;
44987;SDS011;35735;52.226;21.254;2024-02-04T10:40:23;11.07;;;2.53;;
44987;SDS011;35735;52.226;21.254;2024-02-04T10:45:24;8.23;;;2.92;;
44987;SDS011;35735;52.226;21.254;2024-02-04T10:50:30;9.90;;;2.53;;
44987;SDS011;35735;52.226;21.254;2024-02-04T10:55:36;7.70;;;2.62;;
44987;SDS011;35735;52.226;21.254;2024-02-04T11:00:41;9.05;;;2.92;;
44987;SDS011;35735;52.226;21.254;2024-02-04T11:05:43;12.30;;;3.00;;
44987;SDS011;35735;52.226;21.254;2024-02-04T11:10:45;12.20;;;2.97;;
44987;SDS011;35735;52.226;21.254;2024-02-04T11:15:46;9.63;;;3.17;;
44987;SDS011;35735;52.226;21.254;2024-02-04T11:20:53;8.45;;;3.22;;
44987;SDS011;35735;52.226;21.254;2024-02-04T11:26:24;7.75;;;2.75;;
44987;SDS011;35735;52.226;21.254;2024-02-04T11:31:28;11.20;;;3.10;;
44987;SDS011;35735;52.226;21.254;2024-02-04T11:36:29;10.15;;;2.90;;
44987;SDS011;35735;52.226;21.254;2024-02-04T11:41:29;10.75;;;3.08;;
44987;SDS011;35735;52.226;21.254;2024-02-04T11:46:30;8.75;;;3.05;;
44987;SDS011;35735;52.226;21.254;2024-02-04T11:51:31;5.82;;;2.67;;
44987;SDS011;35735;52.226;21.254;2024-02-04T11:56:31;7.50;;;2.58;;
44987;SDS011;35735;52.226;21.254;2024-02-04T12:01:32;8.57;;;2.70;;
44987;SDS011;35735;52.226;21.254;2024-02-04T12:06:33;8.80;;;3.03;;
44987;SDS011;35735;52.226;21.254;2024-02-04T12:11:34;8.43;;;2.95;;
44987;SDS011;35735;52.226;21.254;2024-02-04T12:16:36;8.73;;;2.92;;
44987;SDS011;35735;52.226;21.254;2024-02-04T12:21:37;7.47;;;3.00;;
44987;SDS011;35735;52.226;21.254;2024-02-04T12:26:37;10.73;;;3.10;;
44987;SDS011;35735;52.226;21.254;2024-02-04T12:31:39;9.95;;;3.33;;
44987;SDS011;35735;52.226;21.254;2024-02-04T12:36:39;11.20;;;3.35;;
44987;SDS011;35735;52.226;21.254;2024-02-04T12:41:40;9.60;;;3.45;;
44987;SDS011;35735;52.226;21.254;2024-02-04T12:46:40;7.03;;;2.90;;
44987;SDS011;35735;52.226;21.254;2024-02-04T12:51:41;12.52;;;3.58;;
44987;SDS011;35735;52.226;21.254;2024-02-04T12:56:51;11.07;;;3.35;;
44987;SDS011;35735;52.226;21.254;2024-02-04T13:01:54;9.75;;;3.22;;
44987;SDS011;35735;52.226;21.254;2024-02-04T13:06:57;8.55;;;3.30;;
44987;SDS011;35735;52.226;21.254;2024-02-04T13:12:07;10.68;;;3.20;;
44987;SDS011;35735;52.226;21.254;2024-02-04T13:17:09;8.52;;;3.47;;
44987;SDS011;35735;52.226;21.254;2024-02-04T13:22:10;7.87;;;3.65;;
44987;SDS011;35735;52.226;21.254;2024-02-04T13:27:10;8.48;;;3.22;;
44987;SDS011;35735;52.226;21.254;2024-02-04T13:32:11;11.77;;;3.33;;
44987;SDS011;35735;52.226;21.254;2024-02-04T13:37:11;8.68;;;3.50;;
44987;SDS011;35735;52.226;21.254;2024-02-04T13:42:12;10.25;;;3.25;;
44987;SDS011;35735;52.226;21.254;2024-02-04T13:47:13;10.30;;;3.60;;
44987;SDS011;35735;52.226;21.254;2024-02-04T13:52:13;8.88;;;4.40;;
44987;SDS011;35735;52.226;21.254;2024-02-04T13:57:14;14.30;;;4.70;;
44987;SDS011;35735;52.226;21.254;2024-02-04T14:02:15;11.88;;;4.47;;
44987;SDS011;35735;52.226;21.254;2024-02-04T14:07:16;9.15;;;4.15;;
44987;SDS011;35735;52.226;21.254;2024-02-04T14:12:16;8.98;;;3.50;;
44987;SDS011;35735;52.226;21.254;2024-02-04T14:17:17;10.18;;;3.87;;
44987;SDS011;35735;52.226;21.254;2024-02-04T14:22:17;9.93;;;3.42;;
44987;SDS011;35735;52.226;21.254;2024-02-04T14:27:18;7.97;;;3.10;;
44987;SDS011;35735;52.226;21.254;2024-02-04T14:32:18;6.78;;;2.78;;
44987;SDS011;35735;52.226;21.254;2024-02-04T14:37:19;10.05;;;3.37;;
44987;SDS011;35735;52.226;21.254;2024-02-04T14:42:19;6.35;;;3.00;;
44987;SDS011;35735;52.226;21.254;2024-02-04T14:47:20;7.85;;;3.00;;
44987;SDS011;35735;52.226;21.254;2024-02-04T14:52:20;5.68;;;2.97;;
44987;SDS011;35735;52.226;21.254;2024-02-04T14:57:21;7.35;;;2.90;;
44987;SDS011;35735;52.226;21.254;2024-02-04T15:02:21;7.78;;;2.87;;
44987;SDS011;35735;52.226;21.254;2024-02-04T15:07:22;9.50;;;2.97;;
44987;SDS011;35735;52.226;21.254;2024-02-04T15:12:23;7.60;;;3.17;;
44987;SDS011;35735;52.226;21.254;2024-02-04T15:17:24;8.05;;;2.62;;
44987;SDS011;35735;52.226;21.254;2024-02-04T15:22:24;7.45;;;2.85;;
44987;SDS011;35735;52.226;21.254;2024-02-04T15:27:26;6.97;;;2.85;;
44987;SDS011;35735;52.226;21.254;2024-02-04T15:32:27;6.20;;;3.10;;
44987;SDS011;35735;52.226;21.254;2024-02-04T15:37:28;8.68;;;3.03;;
44987;SDS011;35735;52.226;21.254;2024-02-04T15:42:28;6.82;;;2.55;;
44987;SDS011;35735;52.226;21.254;2024-02-04T15:47:29;6.95;;;3.00;;
44987;SDS011;35735;52.226;21.254;2024-02-04T15:52:31;8.82;;;3.00;;
44987;SDS011;35735;52.226;21.254;2024-02-04T15:57:33;8.35;;;2.78;;
44987;SDS011;35735;52.226;21.254;2024-02-04T16:02:36;6.65;;;2.90;;
44987;SDS011;35735;52.226;21.254;2024-02-04T16:07:37;5.82;;;2.80;;
44987;SDS011;35735;52.226;21.254;2024-02-04T16:12:38;7.45;;;2.70;;
44987;SDS011;35735;52.226;21.254;2024-02-04T16:17:39;7.32;;;2.97;;
44987;SDS011;35735;52.226;21.254;2024-02-04T16:22:41;10.18;;;2.80;;
44987;SDS011;35735;52.226;21.254;2024-02-04T16:27:41;9.15;;;3.15;;
44987;SDS011;35735;52.226;21.254;2024-02-04T16:32:43;8.85;;;2.85;;
44987;SDS011;35735;52.226;21.254;2024-02-04T16:37:43;9.57;;;3.12;;
44987;SDS011;35735;52.226;21.254;2024-02-04T16:42:44;10.82;;;3.47;;
44987;SDS011;35735;52.226;21.254;2024-02-04T16:47:44;6.80;;;3.20;;
44987;SDS011;35735;52.226;21.254;2024-02-04T16:52:45;7.78;;;3.55;;
44987;SDS011;35735;52.226;21.254;2024-02-04T16:57:45;7.18;;;3.30;;
44987;SDS011;35735;52.226;21.254;2024-02-04T17:02:46;7.10;;;3.55;;
44987;SDS011;35735;52.226;21.254;2024-02-04T17:07:47;6.65;;;3.28;;
44987;SDS011;35735;52.226;21.254;2024-02-04T17:12:48;6.70;;;3.00;;
44987;SDS011;35735;52.226;21.254;2024-02-04T17:17:52;6.43;;;2.90;;
44987;SDS011;35735;52.226;21.254;2024-02-04T17:23:04;6.87;;;3.25;;
44987;SDS011;35735;52.226;21.254;2024-02-04T17:28:09;6.85;;;3.28;;
44987;SDS011;35735;52.226;21.254;2024-02-04T17:33:10;7.15;;;2.95;;
44987;SDS011;35735;52.226;21.254;2024-02-04T17:38:10;5.78;;;3.00;;
44987;SDS011;35735;52.226;21.254;2024-02-04T17:43:11;8.27;;;3.45;;
44987;SDS011;35735;52.226;21.254;2024-02-04T17:48:12;7.65;;;3.05;;
44987;SDS011;35735;52.226;21.254;2024-02-04T17:53:12;7.15;;;3.33;;
44987;SDS011;35735;52.226;21.254;2024-02-04T17:58:13;7.25;;;3.15;;
44987;SDS011;35735;52.226;21.254;2024-02-04T18:03:13;7.03;;;2.80;;
44987;SDS011;35735;52.226;21.254;2024-02-04T18:08:14;6.03;;;2.90;;
44987;SDS011;35735;52.226;21.254;2024-02-04T18:13:14;5.57;;;3.08;;
44987;SDS011;35735;52.226;21.254;2024-02-04T18:18:15;8.82;;;2.70;;
44987;SDS011;35735;52.226;21.254;2024-02-04T18:23:15;6.65;;;2.72;;
44987;SDS011;35735;52.226;21.254;2024-02-04T18:28:16;8.35;;;2.90;;
44987;SDS011;35735;52.226;21.254;2024-02-04T18:33:17;6.78;;;2.53;;
44987;SDS011;35735;52.226;21.254;2024-02-04T18:38:17;7.95;;;3.05;;
44987;SDS011;35735;52.226;21.254;2024-02-04T18:43:18;6.82;;;2.70;;
44987;SDS011;35735;52.226;21.254;2024-02-04T18:48:18;8.95;;;3.22;;
44987;SDS011;35735;52.226;21.254;2024-02-04T18:53:19;7.37;;;3.30;;
44987;SDS011;35735;52.226;21.254;2024-02-04T18:58:19;8.52;;;3.42;;
44987;SDS011;35735;52.226;21.254;2024-02-04T19:03:20;7.20;;;2.83;;
44987;SDS011;35735;52.226;21.254;2024-02-04T19:08:21;8.18;;;3.03;;
44987;SDS011;35735;52.226;21.254;2024-02-04T19:13:22;9.05;;;2.80;;
44987;SDS011;35735;52.226;21.254;2024-02-04T19:18:25;8.40;;;2.87;;
44987;SDS011;35735;52.226;21.254;2024-02-04T19:23:26;5.82;;;2.47;;
44987;SDS011;35735;52.226;21.254;2024-02-04T19:28:26;5.80;;;2.35;;
44987;SDS011;35735;52.226;21.254;2024-02-04T19:33:27;8.77;;;2.72;;
44987;SDS011;35735;52.226;21.254;2024-02-04T19:38:27;5.95;;;2.35;;
44987;SDS011;35735;52.226;21.254;2024-02-04T19:43:28;8.75;;;2.67;;
44987;SDS011;35735;52.226;21.254;2024-02-04T19:48:29;6.60;;;2.37;;
44987;SDS011;35735;52.226;21.254;2024-02-04T19:53:29;6.05;;;2.22;;
44987;SDS011;35735;52.226;21.254;2024-02-04T19:58:30;5.53;;;2.42;;
44987;SDS011;35735;52.226;21.254;2024-02-04T20:03:30;8.02;;;3.05;;
44987;SDS011;35735;52.226;21.254;2024-02-04T20:08:31;6.07;;;2.87;;
44987;SDS011;35735;52.226;21.254;2024-02-04T20:13:31;7.50;;;2.92;;
44987;SDS011;35735;52.226;21.254;2024-02-04T20:18:32;6.93;;;2.40;;
44987;SDS011;35735;52.226;21.254;2024-02-04T20:23:32;7.18;;;2.70;;
44987;SDS011;35735;52.226;21.254;2024-02-04T20:28:33;7.20;;;3.10;;
44987;SDS011;35735;52.226;21.254;2024-02-04T20:33:34;8.40;;;3.20;;
44987;SDS011;35735;52.226;21.254;2024-02-04T20:38:34;8.50;;;3.35;;
44987;SDS011;35735;52.226;21.254;2024-02-04T20:43:35;7.15;;;3.22;;
44987;SDS011;35735;52.226;21.254;2024-02-04T20:48:36;8.02;;;2.97;;
44987;SDS011;35735;52.226;21.254;2024-02-04T20:53:37;6.75;;;2.67;;
44987;SDS011;35735;52.226;21.254;2024-02-04T20:58:38;8.85;;;3.20;;
44987;SDS011;35735;52.226;21.254;2024-02-04T21:03:39;8.30;;;3.15;;
44987;SDS011;35735;52.226;21.254;2024-02-04T21:08:39;7.78;;;2.92;;
44987;SDS011;35735;52.226;21.254;2024-02-04T21:13:40;7.00;;;2.72;;
44987;SDS011;35735;52.226;21.254;2024-02-04T21:18:41;8.07;;;2.97;;
44987;SDS011;35735;52.226;21.254;2024-02-04T21:23:42;7.43;;;2.85;;
44987;SDS011;35735;52.226;21.254;2024-02-04T21:28:42;7.07;;;3.03;;
44987;SDS011;35735;52.226;21.254;2024-02-04T21:33:43;7.80;;;2.85;;
44987;SDS011;35735;52.226;21.254;2024-02-04T21:38:43;9.00;;;2.95;;
44987;SDS011;35735;52.226;21.254;2024-02-04T21:43:44;6.90;;;2.47;;
44987;SDS011;35735;52.226;21.254;2024-02-04T21:48:44;10.40;;;3.30;;
44987;SDS011;35735;52.226;21.254;2024-02-04T21:53:45;7.53;;;2.95;;
44987;SDS011;35735;52.226;21.254;2024-02-04T21:58:46;5.00;;;2.53;;
44987;SDS011;35735;52.226;21.254;2024-02-04T22:03:46;8.63;;;2.90;;
44987;SDS011;35735;52.226;21.254;2024-02-04T22:08:47;6.10;;;2.60;;
44987;SDS011;35735;52.226;21.254;2024-02-04T22:13:47;7.70;;;3.03;;
44987;SDS011;35735;52.226;21.254;2024-02-04T22:18:48;7.30;;;2.72;;
44987;SDS011;35735;52.226;21.254;2024-02-04T22:23:48;5.95;;;2.70;;
44987;SDS011;35735;52.226;21.254;2024-02-04T22:28:49;11.35;;;2.92;;
44987;SDS011;35735;52.226;21.254;2024-02-04T22:33:49;8.57;;;2.58;;
44987;SDS011;35735;52.226;21.254;2024-02-04T22:38:50;8.80;;;2.70;;
44987;SDS011;35735;52.226;21.254;2024-02-04T22:43:51;6.22;;;2.60;;
44987;SDS011;35735;52.226;21.254;2024-02-04T22:48:52;8.50;;;2.80;;
44987;SDS011;35735;52.226;21.254;2024-02-04T22:53:52;7.25;;;2.42;;
44987;SDS011;35735;52.226;21.254;2024-02-04T22:58:53;8.15;;;3.03;;
44987;SDS011;35735;52.226;21.254;2024-02-04T23:03:53;8.65;;;2.62;;
44987;SDS011;35735;52.226;21.254;2024-02-04T23:08:54;10.43;;;2.67;;
44987;SDS011;35735;52.226;21.254;2024-02-04T23:13:55;7.60;;;3.00;;
44987;SDS011;35735;52.226;21.254;2024-02-04T23:18:55;6.93;;;2.60;;
44987;SDS011;35735;52.226;21.254;2024-02-04T23:23:56;7.37;;;2.55;;
44987;SDS011;35735;52.226;21.254;2024-02-04T23:28:56;9.32;;;3.12;;
44987;SDS011;35735;52.226;21.254;2024-02-04T23:33:57;8.13;;;2.35;;
44987;SDS011;35735;52.226;21.254;2024-02-04T23:38:57;6.90;;;2.85;;
44987;SDS011;35735;52.226;21.254;2024-02-04T23:43:58;8.50;;;2.45;;
44987;SDS011;35735;52.226;21.254;2024-02-04T23:48:59;8.95;;;2.95;;
44987;SDS011;35735;52.226;21.254;2024-02-04T23:53:59;7.32;;;2.40;;
44987;SDS011;35735;52.226;21.254;2024-02-04T23:59:00;6.57;;;2.80;;
